sensor_id;sensor_type;location;lat;lon;timestamp;P1;durP1;ratioP1;P2;durP2;ratioP2
21354;SDS011;10835;50.148;19.760;2022-12-29T00:01:52;8.32;;;3.63;;
21354;SDS011;10835;50.148;19.760;2022-12-29T00:04:23;5.30;;;3.03;;
21354;SDS011;10835;50.148;19.760;2022-12-29T00:06:52;3.95;;;2.20;;
21354;SDS011;10835;50.148;19.760;2022-12-29T00:09:20;5.68;;;2.35;;
21354;SDS011;10835;50.148;19.760;2022-12-29T00:11:48;6.90;;;3.03;;
21354;SDS011;10835;50.148;19.760;2022-12-29T00:14:18;5.97;;;2.20;;
21354;SDS011;10835;50.148;19.760;2022-12-29T00:17:04;4.57;;;2.30;;
21354;SDS011;10835;50.148;19.760;2022-12-29T00:19:32;3.63;;;1.90;;
21354;SDS011;10835;50.148;19.760;2022-12-29T00:22:18;4.05;;;2.35;;
21354;SDS011;10835;50.148;19.760;2022-12-29T00:25:03;4.05;;;2.55;;
21354;SDS011;10835;50.148;19.760;2022-12-29T00:27:50;3.00;;;1.85;;
21354;SDS011;10835;50.148;19.760;2022-12-29T00:30:37;3.88;;;2.05;;
21354;SDS011;10835;50.148;19.760;2022-12-29T00:33:25;4.47;;;2.22;;
21354;SDS011;10835;50.148;19.760;2022-12-29T00:36:15;4.97;;;2.72;;
21354;SDS011;10835;50.148;19.760;2022-12-29T00:38:49;3.55;;;2.10;;
21354;SDS011;10835;50.148;19.760;2022-12-29T00:41:37;3.70;;;2.28;;
21354;SDS011;10835;50.148;19.760;2022-12-29T00:44:23;2.05;;;1.75;;
21354;SDS011;10835;50.148;19.760;2022-12-29T00:46:52;6.40;;;1.95;;
21354;SDS011;10835;50.148;19.760;2022-12-29T00:49:20;6.20;;;2.65;;
21354;SDS011;10835;50.148;19.760;2022-12-29T00:51:59;3.38;;;2.00;;
21354;SDS011;10835;50.148;19.760;2022-12-29T00:54:31;4.13;;;2.28;;
21354;SDS011;10835;50.148;19.760;2022-12-29T00:57:00;5.10;;;2.35;;
21354;SDS011;10835;50.148;19.760;2022-12-29T00:59:29;3.28;;;2.08;;
21354;SDS011;10835;50.148;19.760;2022-12-29T01:01:59;7.28;;;1.92;;
21354;SDS011;10835;50.148;19.760;2022-12-29T01:04:28;4.30;;;2.40;;
21354;SDS011;10835;50.148;19.760;2022-12-29T01:06:56;3.53;;;2.17;;
21354;SDS011;10835;50.148;19.760;2022-12-29T01:09:24;3.03;;;1.92;;
21354;SDS011;10835;50.148;19.760;2022-12-29T01:12:09;9.68;;;2.53;;
21354;SDS011;10835;50.148;19.760;2022-12-29T01:14:38;5.85;;;2.63;;
21354;SDS011;10835;50.148;19.760;2022-12-29T01:17:07;4.65;;;1.67;;
21354;SDS011;10835;50.148;19.760;2022-12-29T01:19:35;4.90;;;2.03;;
21354;SDS011;10835;50.148;19.760;2022-12-29T01:22:03;3.35;;;1.85;;
21354;SDS011;10835;50.148;19.760;2022-12-29T01:24:32;2.97;;;2.10;;
21354;SDS011;10835;50.148;19.760;2022-12-29T01:27:00;2.55;;;1.80;;
21354;SDS011;10835;50.148;19.760;2022-12-29T01:29:28;2.40;;;1.63;;
21354;SDS011;10835;50.148;19.760;2022-12-29T01:31:56;3.80;;;1.88;;
21354;SDS011;10835;50.148;19.760;2022-12-29T01:34:26;4.28;;;2.25;;
21354;SDS011;10835;50.148;19.760;2022-12-29T01:36:54;4.38;;;2.15;;
21354;SDS011;10835;50.148;19.760;2022-12-29T01:39:22;3.00;;;2.10;;
21354;SDS011;10835;50.148;19.760;2022-12-29T01:41:50;6.55;;;2.55;;
21354;SDS011;10835;50.148;19.760;2022-12-29T01:47:21;5.30;;;2.10;;
21354;SDS011;10835;50.148;19.760;2022-12-29T01:49:56;3.70;;;1.73;;
21354;SDS011;10835;50.148;19.760;2022-12-29T01:52:27;5.40;;;2.30;;
21354;SDS011;10835;50.148;19.760;2022-12-29T01:55:00;5.13;;;2.40;;
21354;SDS011;10835;50.148;19.760;2022-12-29T01:57:31;2.42;;;1.73;;
21354;SDS011;10835;50.148;19.760;2022-12-29T02:00:04;4.75;;;2.33;;
21354;SDS011;10835;50.148;19.760;2022-12-29T02:02:41;5.63;;;2.28;;
21354;SDS011;10835;50.148;19.760;2022-12-29T02:05:16;5.30;;;2.28;;
21354;SDS011;10835;50.148;19.760;2022-12-29T02:07:50;3.92;;;2.33;;
21354;SDS011;10835;50.148;19.760;2022-12-29T02:10:19;3.40;;;1.65;;
21354;SDS011;10835;50.148;19.760;2022-12-29T02:12:49;4.80;;;1.70;;
21354;SDS011;10835;50.148;19.760;2022-12-29T02:15:17;2.25;;;1.67;;
21354;SDS011;10835;50.148;19.760;2022-12-29T02:17:56;3.92;;;2.00;;
21354;SDS011;10835;50.148;19.760;2022-12-29T02:20:53;3.70;;;2.25;;
21354;SDS011;10835;50.148;19.760;2022-12-29T02:23:52;6.10;;;2.58;;
21354;SDS011;10835;50.148;19.760;2022-12-29T02:26:44;4.72;;;2.63;;
21354;SDS011;10835;50.148;19.760;2022-12-29T02:29:40;7.75;;;3.53;;
21354;SDS011;10835;50.148;19.760;2022-12-29T02:32:31;6.80;;;3.60;;
21354;SDS011;10835;50.148;19.760;2022-12-29T02:35:07;6.75;;;3.60;;
21354;SDS011;10835;50.148;19.760;2022-12-29T02:37:43;8.88;;;4.25;;
21354;SDS011;10835;50.148;19.760;2022-12-29T02:40:24;7.00;;;3.40;;
21354;SDS011;10835;50.148;19.760;2022-12-29T02:43:00;9.77;;;4.57;;
21354;SDS011;10835;50.148;19.760;2022-12-29T02:45:43;6.97;;;3.70;;
21354;SDS011;10835;50.148;19.760;2022-12-29T02:48:17;8.18;;;3.53;;
21354;SDS011;10835;50.148;19.760;2022-12-29T02:50:53;10.30;;;4.70;;
21354;SDS011;10835;50.148;19.760;2022-12-29T02:53:26;14.10;;;5.47;;
21354;SDS011;10835;50.148;19.760;2022-12-29T02:56:13;13.10;;;5.40;;
21354;SDS011;10835;50.148;19.760;2022-12-29T02:58:41;8.95;;;5.15;;
21354;SDS011;10835;50.148;19.760;2022-12-29T03:01:22;9.35;;;4.82;;
21354;SDS011;10835;50.148;19.760;2022-12-29T03:04:06;12.95;;;5.00;;
21354;SDS011;10835;50.148;19.760;2022-12-29T03:06:51;11.30;;;5.32;;
21354;SDS011;10835;50.148;19.760;2022-12-29T03:09:26;12.23;;;5.40;;
21354;SDS011;10835;50.148;19.760;2022-12-29T03:12:06;11.63;;;4.78;;
21354;SDS011;10835;50.148;19.760;2022-12-29T03:14:47;9.68;;;4.93;;
21354;SDS011;10835;50.148;19.760;2022-12-29T03:17:40;8.68;;;4.65;;
21354;SDS011;10835;50.148;19.760;2022-12-29T03:20:18;11.65;;;5.20;;
21354;SDS011;10835;50.148;19.760;2022-12-29T03:22:53;10.32;;;5.03;;
21354;SDS011;10835;50.148;19.760;2022-12-29T03:25:28;10.43;;;4.70;;
21354;SDS011;10835;50.148;19.760;2022-12-29T03:28:01;6.88;;;3.75;;
21354;SDS011;10835;50.148;19.760;2022-12-29T03:30:39;8.18;;;3.85;;
21354;SDS011;10835;50.148;19.760;2022-12-29T03:33:10;10.30;;;3.83;;
21354;SDS011;10835;50.148;19.760;2022-12-29T03:35:46;8.73;;;3.67;;
21354;SDS011;10835;50.148;19.760;2022-12-29T03:38:18;7.20;;;3.10;;
21354;SDS011;10835;50.148;19.760;2022-12-29T03:40:53;6.80;;;3.13;;
21354;SDS011;10835;50.148;19.760;2022-12-29T03:43:26;6.68;;;2.97;;
21354;SDS011;10835;50.148;19.760;2022-12-29T03:45:55;6.10;;;2.60;;
21354;SDS011;10835;50.148;19.760;2022-12-29T03:48:24;4.82;;;2.33;;
21354;SDS011;10835;50.148;19.760;2022-12-29T03:50:55;4.68;;;2.28;;
21354;SDS011;10835;50.148;19.760;2022-12-29T03:53:23;4.95;;;2.38;;
21354;SDS011;10835;50.148;19.760;2022-12-29T03:55:52;4.20;;;2.05;;
21354;SDS011;10835;50.148;19.760;2022-12-29T03:58:21;3.65;;;2.40;;
21354;SDS011;10835;50.148;19.760;2022-12-29T04:01:00;5.72;;;2.75;;
21354;SDS011;10835;50.148;19.760;2022-12-29T04:03:31;7.07;;;2.10;;
21354;SDS011;10835;50.148;19.760;2022-12-29T04:06:03;4.60;;;2.38;;
21354;SDS011;10835;50.148;19.760;2022-12-29T04:09:00;8.80;;;3.58;;
21354;SDS011;10835;50.148;19.760;2022-12-29T04:11:32;11.00;;;3.38;;
21354;SDS011;10835;50.148;19.760;2022-12-29T04:14:02;5.55;;;2.95;;
21354;SDS011;10835;50.148;19.760;2022-12-29T04:16:32;5.75;;;2.67;;
21354;SDS011;10835;50.148;19.760;2022-12-29T04:19:03;4.65;;;2.70;;
21354;SDS011;10835;50.148;19.760;2022-12-29T04:21:33;4.47;;;2.33;;
21354;SDS011;10835;50.148;19.760;2022-12-29T04:24:01;4.90;;;2.20;;
21354;SDS011;10835;50.148;19.760;2022-12-29T04:26:37;8.88;;;2.80;;
21354;SDS011;10835;50.148;19.760;2022-12-29T04:29:23;8.63;;;3.70;;
21354;SDS011;10835;50.148;19.760;2022-12-29T04:32:14;9.95;;;3.92;;
21354;SDS011;10835;50.148;19.760;2022-12-29T04:34:47;6.85;;;3.50;;
21354;SDS011;10835;50.148;19.760;2022-12-29T04:37:18;7.80;;;4.10;;
21354;SDS011;10835;50.148;19.760;2022-12-29T04:39:47;10.05;;;3.90;;
21354;SDS011;10835;50.148;19.760;2022-12-29T04:42:15;9.63;;;3.67;;
21354;SDS011;10835;50.148;19.760;2022-12-29T04:44:43;5.43;;;3.05;;
21354;SDS011;10835;50.148;19.760;2022-12-29T04:47:17;6.70;;;3.92;;
21354;SDS011;10835;50.148;19.760;2022-12-29T04:49:54;6.22;;;3.70;;
21354;SDS011;10835;50.148;19.760;2022-12-29T04:52:39;6.88;;;3.40;;
21354;SDS011;10835;50.148;19.760;2022-12-29T04:55:09;7.38;;;3.88;;
21354;SDS011;10835;50.148;19.760;2022-12-29T04:57:38;8.75;;;4.13;;
21354;SDS011;10835;50.148;19.760;2022-12-29T05:00:08;6.25;;;3.22;;
21354;SDS011;10835;50.148;19.760;2022-12-29T05:02:37;10.45;;;3.85;;
21354;SDS011;10835;50.148;19.760;2022-12-29T05:05:06;6.65;;;3.30;;
21354;SDS011;10835;50.148;19.760;2022-12-29T05:07:41;9.55;;;4.28;;
21354;SDS011;10835;50.148;19.760;2022-12-29T05:10:09;8.27;;;4.43;;
21354;SDS011;10835;50.148;19.760;2022-12-29T05:12:37;9.73;;;5.03;;
21354;SDS011;10835;50.148;19.760;2022-12-29T05:15:07;11.35;;;5.78;;
21354;SDS011;10835;50.148;19.760;2022-12-29T05:20:41;11.73;;;4.95;;
21354;SDS011;10835;50.148;19.760;2022-12-29T05:23:11;11.18;;;4.50;;
21354;SDS011;10835;50.148;19.760;2022-12-29T05:25:41;6.90;;;4.18;;
21354;SDS011;10835;50.148;19.760;2022-12-29T05:28:19;7.93;;;4.22;;
21354;SDS011;10835;50.148;19.760;2022-12-29T05:30:51;7.15;;;4.22;;
21354;SDS011;10835;50.148;19.760;2022-12-29T05:33:19;10.68;;;4.32;;
21354;SDS011;10835;50.148;19.760;2022-12-29T05:35:49;7.75;;;4.00;;
21354;SDS011;10835;50.148;19.760;2022-12-29T05:38:20;5.50;;;3.08;;
21354;SDS011;10835;50.148;19.760;2022-12-29T05:40:48;5.32;;;3.33;;
21354;SDS011;10835;50.148;19.760;2022-12-29T05:43:46;7.63;;;3.38;;
21354;SDS011;10835;50.148;19.760;2022-12-29T05:46:32;6.82;;;3.38;;
21354;SDS011;10835;50.148;19.760;2022-12-29T05:49:23;5.03;;;2.78;;
21354;SDS011;10835;50.148;19.760;2022-12-29T05:55:11;3.55;;;2.15;;
21354;SDS011;10835;50.148;19.760;2022-12-29T05:57:42;6.05;;;2.40;;
21354;SDS011;10835;50.148;19.760;2022-12-29T06:00:13;5.25;;;2.45;;
21354;SDS011;10835;50.148;19.760;2022-12-29T06:02:44;4.68;;;2.53;;
21354;SDS011;10835;50.148;19.760;2022-12-29T06:05:17;5.10;;;2.72;;
21354;SDS011;10835;50.148;19.760;2022-12-29T06:07:46;4.20;;;2.45;;
21354;SDS011;10835;50.148;19.760;2022-12-29T06:10:17;4.28;;;2.05;;
21354;SDS011;10835;50.148;19.760;2022-12-29T06:12:59;2.60;;;2.17;;
21354;SDS011;10835;50.148;19.760;2022-12-29T06:15:30;2.75;;;1.77;;
21354;SDS011;10835;50.148;19.760;2022-12-29T06:17:58;4.13;;;2.28;;
21354;SDS011;10835;50.148;19.760;2022-12-29T06:20:26;3.85;;;2.72;;
21354;SDS011;10835;50.148;19.760;2022-12-29T06:22:55;3.80;;;2.20;;
21354;SDS011;10835;50.148;19.760;2022-12-29T06:25:24;3.22;;;1.98;;
21354;SDS011;10835;50.148;19.760;2022-12-29T06:27:52;5.40;;;2.60;;
21354;SDS011;10835;50.148;19.760;2022-12-29T06:30:20;5.38;;;3.08;;
21354;SDS011;10835;50.148;19.760;2022-12-29T06:32:49;7.75;;;3.00;;
21354;SDS011;10835;50.148;19.760;2022-12-29T06:35:18;6.40;;;2.45;;
21354;SDS011;10835;50.148;19.760;2022-12-29T06:37:50;7.68;;;2.80;;
21354;SDS011;10835;50.148;19.760;2022-12-29T06:40:19;6.05;;;2.80;;
21354;SDS011;10835;50.148;19.760;2022-12-29T06:43:08;6.32;;;3.25;;
21354;SDS011;10835;50.148;19.760;2022-12-29T06:45:39;4.78;;;2.95;;
21354;SDS011;10835;50.148;19.760;2022-12-29T06:48:07;5.30;;;3.20;;
21354;SDS011;10835;50.148;19.760;2022-12-29T06:50:35;7.25;;;3.50;;
21354;SDS011;10835;50.148;19.760;2022-12-29T06:53:06;7.60;;;3.13;;
21354;SDS011;10835;50.148;19.760;2022-12-29T06:55:34;7.90;;;3.45;;
21354;SDS011;10835;50.148;19.760;2022-12-29T06:58:03;4.68;;;2.70;;
21354;SDS011;10835;50.148;19.760;2022-12-29T07:00:32;7.63;;;3.40;;
21354;SDS011;10835;50.148;19.760;2022-12-29T07:03:01;6.82;;;3.95;;
21354;SDS011;10835;50.148;19.760;2022-12-29T07:05:29;8.93;;;4.00;;
21354;SDS011;10835;50.148;19.760;2022-12-29T07:07:59;7.85;;;3.67;;
21354;SDS011;10835;50.148;19.760;2022-12-29T07:10:27;5.22;;;3.33;;
21354;SDS011;10835;50.148;19.760;2022-12-29T07:12:57;9.07;;;4.38;;
21354;SDS011;10835;50.148;19.760;2022-12-29T07:15:25;4.57;;;3.13;;
21354;SDS011;10835;50.148;19.760;2022-12-29T07:17:55;5.47;;;3.28;;
21354;SDS011;10835;50.148;19.760;2022-12-29T07:20:23;6.53;;;3.40;;
21354;SDS011;10835;50.148;19.760;2022-12-29T07:22:52;7.63;;;3.75;;
21354;SDS011;10835;50.148;19.760;2022-12-29T07:25:21;6.05;;;3.42;;
21354;SDS011;10835;50.148;19.760;2022-12-29T07:27:49;6.82;;;3.47;;
21354;SDS011;10835;50.148;19.760;2022-12-29T07:30:18;6.13;;;2.92;;
21354;SDS011;10835;50.148;19.760;2022-12-29T07:32:46;5.22;;;3.33;;
21354;SDS011;10835;50.148;19.760;2022-12-29T07:35:18;8.68;;;3.67;;
21354;SDS011;10835;50.148;19.760;2022-12-29T07:37:46;5.28;;;2.63;;
21354;SDS011;10835;50.148;19.760;2022-12-29T07:40:14;6.00;;;2.42;;
21354;SDS011;10835;50.148;19.760;2022-12-29T07:42:42;5.07;;;2.35;;
21354;SDS011;10835;50.148;19.760;2022-12-29T07:45:14;4.78;;;2.42;;
21354;SDS011;10835;50.148;19.760;2022-12-29T07:48:02;4.50;;;2.55;;
21354;SDS011;10835;50.148;19.760;2022-12-29T07:50:32;7.13;;;2.58;;
21354;SDS011;10835;50.148;19.760;2022-12-29T07:53:01;4.65;;;2.40;;
21354;SDS011;10835;50.148;19.760;2022-12-29T07:55:29;6.93;;;2.47;;
21354;SDS011;10835;50.148;19.760;2022-12-29T07:57:58;6.28;;;2.30;;
21354;SDS011;10835;50.148;19.760;2022-12-29T08:00:26;4.05;;;2.00;;
21354;SDS011;10835;50.148;19.760;2022-12-29T08:02:54;4.43;;;2.70;;
21354;SDS011;10835;50.148;19.760;2022-12-29T08:05:22;4.00;;;2.45;;
21354;SDS011;10835;50.148;19.760;2022-12-29T08:07:51;6.95;;;2.33;;
21354;SDS011;10835;50.148;19.760;2022-12-29T08:10:19;6.10;;;2.53;;
21354;SDS011;10835;50.148;19.760;2022-12-29T08:12:47;4.00;;;2.35;;
21354;SDS011;10835;50.148;19.760;2022-12-29T08:15:15;4.68;;;2.60;;
21354;SDS011;10835;50.148;19.760;2022-12-29T08:17:43;5.88;;;2.50;;
21354;SDS011;10835;50.148;19.760;2022-12-29T08:20:11;5.40;;;2.47;;
21354;SDS011;10835;50.148;19.760;2022-12-29T08:22:39;5.80;;;2.60;;
21354;SDS011;10835;50.148;19.760;2022-12-29T08:25:09;4.53;;;1.90;;
21354;SDS011;10835;50.148;19.760;2022-12-29T08:27:37;3.00;;;2.22;;
21354;SDS011;10835;50.148;19.760;2022-12-29T08:30:05;17.48;;;8.95;;
21354;SDS011;10835;50.148;19.760;2022-12-29T08:32:34;15.13;;;7.25;;
21354;SDS011;10835;50.148;19.760;2022-12-29T08:35:03;4.90;;;3.05;;
21354;SDS011;10835;50.148;19.760;2022-12-29T08:37:31;3.45;;;2.15;;
21354;SDS011;10835;50.148;19.760;2022-12-29T08:40:00;3.25;;;1.52;;
21354;SDS011;10835;50.148;19.760;2022-12-29T08:42:31;3.17;;;1.70;;
21354;SDS011;10835;50.148;19.760;2022-12-29T08:45:01;5.65;;;2.35;;
21354;SDS011;10835;50.148;19.760;2022-12-29T08:47:30;5.97;;;2.60;;
21354;SDS011;10835;50.148;19.760;2022-12-29T08:49:58;11.80;;;3.85;;
21354;SDS011;10835;50.148;19.760;2022-12-29T08:52:25;10.18;;;3.55;;
21354;SDS011;10835;50.148;19.760;2022-12-29T08:54:53;8.65;;;3.28;;
21354;SDS011;10835;50.148;19.760;2022-12-29T08:57:22;4.32;;;2.63;;
21354;SDS011;10835;50.148;19.760;2022-12-29T09:00:05;4.00;;;2.45;;
21354;SDS011;10835;50.148;19.760;2022-12-29T09:02:35;6.70;;;3.00;;
21354;SDS011;10835;50.148;19.760;2022-12-29T09:05:04;4.35;;;2.83;;
21354;SDS011;10835;50.148;19.760;2022-12-29T09:07:32;6.10;;;3.60;;
21354;SDS011;10835;50.148;19.760;2022-12-29T09:10:00;6.53;;;3.25;;
21354;SDS011;10835;50.148;19.760;2022-12-29T09:12:28;7.18;;;4.05;;
21354;SDS011;10835;50.148;19.760;2022-12-29T09:15:02;6.50;;;4.25;;
21354;SDS011;10835;50.148;19.760;2022-12-29T09:17:32;11.48;;;5.53;;
21354;SDS011;10835;50.148;19.760;2022-12-29T09:20:10;16.13;;;6.60;;
21354;SDS011;10835;50.148;19.760;2022-12-29T09:22:39;14.85;;;6.75;;
21354;SDS011;10835;50.148;19.760;2022-12-29T09:25:07;11.70;;;6.38;;
21354;SDS011;10835;50.148;19.760;2022-12-29T09:27:36;9.48;;;5.93;;
21354;SDS011;10835;50.148;19.760;2022-12-29T09:30:06;14.77;;;6.60;;
21354;SDS011;10835;50.148;19.760;2022-12-29T09:32:39;14.10;;;7.55;;
21354;SDS011;10835;50.148;19.760;2022-12-29T09:35:11;11.80;;;6.65;;
21354;SDS011;10835;50.148;19.760;2022-12-29T09:37:39;21.05;;;6.40;;
21354;SDS011;10835;50.148;19.760;2022-12-29T09:40:09;12.38;;;6.68;;
21354;SDS011;10835;50.148;19.760;2022-12-29T09:42:55;13.18;;;6.18;;
21354;SDS011;10835;50.148;19.760;2022-12-29T09:45:51;20.08;;;8.43;;
21354;SDS011;10835;50.148;19.760;2022-12-29T09:48:29;18.05;;;7.80;;
21354;SDS011;10835;50.148;19.760;2022-12-29T09:51:03;17.63;;;7.38;;
21354;SDS011;10835;50.148;19.760;2022-12-29T09:53:36;14.05;;;6.65;;
21354;SDS011;10835;50.148;19.760;2022-12-29T09:56:07;12.60;;;6.75;;
21354;SDS011;10835;50.148;19.760;2022-12-29T09:58:41;13.07;;;6.32;;
21354;SDS011;10835;50.148;19.760;2022-12-29T10:01:17;12.27;;;6.30;;
21354;SDS011;10835;50.148;19.760;2022-12-29T10:03:56;9.93;;;6.07;;
21354;SDS011;10835;50.148;19.760;2022-12-29T10:06:26;12.90;;;6.25;;
21354;SDS011;10835;50.148;19.760;2022-12-29T10:09:02;8.45;;;5.53;;
21354;SDS011;10835;50.148;19.760;2022-12-29T10:11:43;9.02;;;6.20;;
21354;SDS011;10835;50.148;19.760;2022-12-29T10:14:25;23.58;;;8.38;;
21354;SDS011;10835;50.148;19.760;2022-12-29T10:17:08;20.05;;;9.10;;
21354;SDS011;10835;50.148;19.760;2022-12-29T10:19:51;17.35;;;7.82;;
21354;SDS011;10835;50.148;19.760;2022-12-29T10:22:35;13.23;;;7.38;;
21354;SDS011;10835;50.148;19.760;2022-12-29T10:25:17;11.95;;;5.68;;
21354;SDS011;10835;50.148;19.760;2022-12-29T10:27:48;16.63;;;7.15;;
21354;SDS011;10835;50.148;19.760;2022-12-29T10:30:17;10.43;;;5.32;;
21354;SDS011;10835;50.148;19.760;2022-12-29T10:32:46;9.07;;;5.28;;
21354;SDS011;10835;50.148;19.760;2022-12-29T10:35:21;9.05;;;5.63;;
21354;SDS011;10835;50.148;19.760;2022-12-29T10:37:52;9.32;;;5.95;;
21354;SDS011;10835;50.148;19.760;2022-12-29T10:40:26;13.93;;;7.47;;
21354;SDS011;10835;50.148;19.760;2022-12-29T10:42:59;17.33;;;9.65;;
21354;SDS011;10835;50.148;19.760;2022-12-29T10:45:29;17.45;;;10.45;;
21354;SDS011;10835;50.148;19.760;2022-12-29T10:48:04;21.30;;;11.60;;
21354;SDS011;10835;50.148;19.760;2022-12-29T10:50:37;20.77;;;10.93;;
21354;SDS011;10835;50.148;19.760;2022-12-29T10:53:12;20.23;;;11.02;;
21354;SDS011;10835;50.148;19.760;2022-12-29T10:55:46;19.52;;;10.88;;
21354;SDS011;10835;50.148;19.760;2022-12-29T10:58:14;21.90;;;11.48;;
21354;SDS011;10835;50.148;19.760;2022-12-29T11:00:44;22.92;;;12.77;;
21354;SDS011;10835;50.148;19.760;2022-12-29T11:03:39;26.27;;;13.20;;
21354;SDS011;10835;50.148;19.760;2022-12-29T11:06:18;26.13;;;12.52;;
21354;SDS011;10835;50.148;19.760;2022-12-29T11:08:51;20.30;;;11.32;;
21354;SDS011;10835;50.148;19.760;2022-12-29T11:11:25;21.05;;;11.70;;
21354;SDS011;10835;50.148;19.760;2022-12-29T11:13:58;22.00;;;11.68;;
21354;SDS011;10835;50.148;19.760;2022-12-29T11:16:30;21.50;;;10.88;;
21354;SDS011;10835;50.148;19.760;2022-12-29T11:18:59;20.02;;;11.82;;
21354;SDS011;10835;50.148;19.760;2022-12-29T11:21:32;24.15;;;11.07;;
21354;SDS011;10835;50.148;19.760;2022-12-29T11:24:17;20.25;;;8.35;;
21354;SDS011;10835;50.148;19.760;2022-12-29T11:26:50;14.98;;;6.68;;
21354;SDS011;10835;50.148;19.760;2022-12-29T11:29:24;11.20;;;5.97;;
21354;SDS011;10835;50.148;19.760;2022-12-29T11:31:55;10.20;;;5.78;;
21354;SDS011;10835;50.148;19.760;2022-12-29T11:34:26;14.02;;;6.95;;
21354;SDS011;10835;50.148;19.760;2022-12-29T11:37:00;11.50;;;6.03;;
21354;SDS011;10835;50.148;19.760;2022-12-29T11:39:31;14.32;;;6.55;;
21354;SDS011;10835;50.148;19.760;2022-12-29T11:42:02;11.15;;;5.93;;
21354;SDS011;10835;50.148;19.760;2022-12-29T11:44:36;11.27;;;6.70;;
21354;SDS011;10835;50.148;19.760;2022-12-29T11:47:08;10.02;;;4.70;;
21354;SDS011;10835;50.148;19.760;2022-12-29T11:49:49;8.55;;;4.05;;
21354;SDS011;10835;50.148;19.760;2022-12-29T11:52:22;8.40;;;3.75;;
21354;SDS011;10835;50.148;19.760;2022-12-29T11:54:51;8.43;;;3.95;;
21354;SDS011;10835;50.148;19.760;2022-12-29T11:57:20;6.82;;;3.78;;
21354;SDS011;10835;50.148;19.760;2022-12-29T11:59:50;5.95;;;3.35;;
21354;SDS011;10835;50.148;19.760;2022-12-29T12:05:13;6.50;;;3.15;;
21354;SDS011;10835;50.148;19.760;2022-12-29T12:07:52;6.03;;;3.45;;
21354;SDS011;10835;50.148;19.760;2022-12-29T12:10:27;5.75;;;3.40;;
21354;SDS011;10835;50.148;19.760;2022-12-29T12:13:02;4.05;;;2.65;;
21354;SDS011;10835;50.148;19.760;2022-12-29T12:15:39;5.70;;;2.50;;
21354;SDS011;10835;50.148;19.760;2022-12-29T12:18:16;2.78;;;1.88;;
21354;SDS011;10835;50.148;19.760;2022-12-29T12:20:50;4.50;;;2.38;;
21354;SDS011;10835;50.148;19.760;2022-12-29T12:23:38;5.82;;;2.40;;
21354;SDS011;10835;50.148;19.760;2022-12-29T12:26:12;4.10;;;2.65;;
21354;SDS011;10835;50.148;19.760;2022-12-29T12:28:48;4.63;;;2.58;;
21354;SDS011;10835;50.148;19.760;2022-12-29T12:31:24;5.18;;;3.05;;
21354;SDS011;10835;50.148;19.760;2022-12-29T12:34:06;4.70;;;2.00;;
21354;SDS011;10835;50.148;19.760;2022-12-29T12:36:54;5.13;;;2.83;;
21354;SDS011;10835;50.148;19.760;2022-12-29T12:39:34;5.80;;;3.45;;
21354;SDS011;10835;50.148;19.760;2022-12-29T12:42:15;3.78;;;2.60;;
21354;SDS011;10835;50.148;19.760;2022-12-29T12:44:55;4.10;;;2.40;;
21354;SDS011;10835;50.148;19.760;2022-12-29T12:47:38;6.65;;;2.47;;
21354;SDS011;10835;50.148;19.760;2022-12-29T12:50:24;4.72;;;3.00;;
21354;SDS011;10835;50.148;19.760;2022-12-29T12:53:22;6.78;;;2.90;;
21354;SDS011;10835;50.148;19.760;2022-12-29T12:56:07;6.05;;;3.40;;
21354;SDS011;10835;50.148;19.760;2022-12-29T12:58:54;4.88;;;2.83;;
21354;SDS011;10835;50.148;19.760;2022-12-29T13:01:38;3.28;;;2.17;;
21354;SDS011;10835;50.148;19.760;2022-12-29T13:04:26;6.70;;;3.38;;
21354;SDS011;10835;50.148;19.760;2022-12-29T13:07:13;7.28;;;2.65;;
21354;SDS011;10835;50.148;19.760;2022-12-29T13:09:57;5.03;;;2.88;;
21354;SDS011;10835;50.148;19.760;2022-12-29T13:12:44;4.32;;;2.40;;
21354;SDS011;10835;50.148;19.760;2022-12-29T13:15:20;7.97;;;2.80;;
21354;SDS011;10835;50.148;19.760;2022-12-29T13:17:59;7.13;;;2.83;;
21354;SDS011;10835;50.148;19.760;2022-12-29T13:20:57;7.30;;;3.00;;
21354;SDS011;10835;50.148;19.760;2022-12-29T13:23:32;5.15;;;2.63;;
21354;SDS011;10835;50.148;19.760;2022-12-29T13:26:12;7.68;;;3.33;;
21354;SDS011;10835;50.148;19.760;2022-12-29T13:28:50;4.45;;;3.20;;
21354;SDS011;10835;50.148;19.760;2022-12-29T13:31:24;4.60;;;3.10;;
21354;SDS011;10835;50.148;19.760;2022-12-29T13:34:04;8.48;;;4.70;;
21354;SDS011;10835;50.148;19.760;2022-12-29T13:36:42;6.10;;;4.13;;
21354;SDS011;10835;50.148;19.760;2022-12-29T13:39:14;6.85;;;4.22;;
21354;SDS011;10835;50.148;19.760;2022-12-29T13:41:49;6.82;;;3.92;;
21354;SDS011;10835;50.148;19.760;2022-12-29T13:44:20;7.13;;;3.95;;
21354;SDS011;10835;50.148;19.760;2022-12-29T13:46:58;9.00;;;3.55;;
21354;SDS011;10835;50.148;19.760;2022-12-29T13:49:32;8.18;;;3.85;;
21354;SDS011;10835;50.148;19.760;2022-12-29T13:52:04;8.90;;;3.33;;
21354;SDS011;10835;50.148;19.760;2022-12-29T13:54:40;6.55;;;3.95;;
21354;SDS011;10835;50.148;19.760;2022-12-29T13:57:14;7.15;;;3.67;;
21354;SDS011;10835;50.148;19.760;2022-12-29T13:59:57;7.57;;;4.43;;
21354;SDS011;10835;50.148;19.760;2022-12-29T14:02:37;6.25;;;3.88;;
21354;SDS011;10835;50.148;19.760;2022-12-29T14:05:28;7.80;;;3.80;;
21354;SDS011;10835;50.148;19.760;2022-12-29T14:07:57;6.93;;;3.92;;
21354;SDS011;10835;50.148;19.760;2022-12-29T14:10:28;7.20;;;3.60;;
21354;SDS011;10835;50.148;19.760;2022-12-29T14:13:05;7.55;;;4.10;;
21354;SDS011;10835;50.148;19.760;2022-12-29T14:15:41;8.93;;;4.50;;
21354;SDS011;10835;50.148;19.760;2022-12-29T14:18:12;9.23;;;4.45;;
21354;SDS011;10835;50.148;19.760;2022-12-29T14:20:52;6.68;;;3.75;;
21354;SDS011;10835;50.148;19.760;2022-12-29T14:23:26;7.88;;;4.53;;
21354;SDS011;10835;50.148;19.760;2022-12-29T14:25:57;7.97;;;4.00;;
21354;SDS011;10835;50.148;19.760;2022-12-29T14:28:39;9.48;;;5.05;;
21354;SDS011;10835;50.148;19.760;2022-12-29T14:37:14;11.48;;;6.30;;
21354;SDS011;10835;50.148;19.760;2022-12-29T14:40:01;14.10;;;7.30;;
21354;SDS011;10835;50.148;19.760;2022-12-29T14:42:31;15.98;;;5.95;;
21354;SDS011;10835;50.148;19.760;2022-12-29T14:45:00;14.82;;;6.82;;
21354;SDS011;10835;50.148;19.760;2022-12-29T14:47:32;14.38;;;7.00;;
21354;SDS011;10835;50.148;19.760;2022-12-29T14:50:03;25.13;;;7.25;;
21354;SDS011;10835;50.148;19.760;2022-12-29T14:52:34;19.17;;;7.30;;
21354;SDS011;10835;50.148;19.760;2022-12-29T14:55:30;15.68;;;6.80;;
21354;SDS011;10835;50.148;19.760;2022-12-29T14:58:05;18.05;;;7.40;;
21354;SDS011;10835;50.148;19.760;2022-12-29T15:00:39;12.10;;;6.70;;
21354;SDS011;10835;50.148;19.760;2022-12-29T15:03:14;14.93;;;7.25;;
21354;SDS011;10835;50.148;19.760;2022-12-29T15:05:48;15.75;;;7.45;;
21354;SDS011;10835;50.148;19.760;2022-12-29T15:08:18;16.55;;;8.73;;
21354;SDS011;10835;50.148;19.760;2022-12-29T15:10:51;18.27;;;9.48;;
21354;SDS011;10835;50.148;19.760;2022-12-29T15:13:23;18.35;;;9.35;;
21354;SDS011;10835;50.148;19.760;2022-12-29T15:16:00;15.77;;;8.55;;
21354;SDS011;10835;50.148;19.760;2022-12-29T15:18:30;19.48;;;10.07;;
21354;SDS011;10835;50.148;19.760;2022-12-29T15:20:59;23.95;;;10.90;;
21354;SDS011;10835;50.148;19.760;2022-12-29T15:23:29;19.88;;;9.82;;
21354;SDS011;10835;50.148;19.760;2022-12-29T15:26:00;18.27;;;8.32;;
21354;SDS011;10835;50.148;19.760;2022-12-29T15:28:38;19.48;;;10.93;;
21354;SDS011;10835;50.148;19.760;2022-12-29T15:31:10;20.90;;;10.63;;